Weather observations for the past three days for
Wharton, Wharton Regional Airport
Imperial (Metric)
Date Time (cdt) Wind (mph) Vis. (mi.) Weather Sky Cond. Temperature (ºF) Relative Humidity Wind Chill (°F) Heat Index (°F) Pressure Precipitation (in)
Air Dwpt 6 hour altimeter (in) sea level (mb) 1 hr 3 hr 6 hr
Max. Min.
30 23:35 SE 5 10.00 Fair CLR 76.6 73.6 90% 77 30 0.0
30 23:15 E 5 10.00 Fair CLR 77.5 73.2 87% 79 29.99 0.0
30 22:55 Calm 10.00 Fair CLR 78.3 73.4 85% 81 29.99 0.0
30 22:35 Calm 10.00 Fair CLR 78.1 73.4 86% 81 29.98 0.0
30 22:15 SE 3 10.00 Fair CLR 77.5 73 86% 79 29.98 0.0
30 21:55 SE 5 10.00 Fair CLR 77.9 73.4 86% 80 29.97 0.0
30 21:35 SE 6 10.00 Fair CLR 78.8 73.4 84% 82 29.97 0.0
30 21:15 S 6 10.00 Fair CLR 79.2 73.4 83% 83 29.96 0.0
30 20:55 SE 7 10.00 Fair CLR 80.2 73.4 80% 85 29.95 0.0
30 20:35 SE 7 10.00 Fair CLR 81.7 73.4 76% 87 29.95 0.0
30 20:15 S 6 10.00 Fair CLR 83.1 73.4 73% 89 29.94 0.0
30 19:55 SE 8 10.00 Fair CLR 85.1 72.7 66% 92 29.95 0.0
30 19:35 SE 9 10.00 Fair CLR 87.1 72.5 62% 94 29.94 0.0
30 19:15 SE 10 10.00 Fair CLR 88.2 72.1 59% 95 29.94 0.0
30 18:55 SE 13 10.00 Fair CLR 89.6 72.7 97.2 88 58% 97 29.93 0.0
30 18:35 SE 13 10.00 Fair CLR 90.7 72.5 55% 99 29.93 0.0
30 18:15 SE 13 10.00 Fair CLR 91.8 72.9 54% 100 29.94 0.0
30 17:55 S 9 10.00 Fair CLR 92.8 70.3 48% 99 29.93 0.0
30 17:35 SE 9 10.00 Fair CLR 93.9 70.7 47% 101 29.94 0.0
30 17:15 S 15 10.00 Fair CLR 93.9 72.5 50% 103 29.94 0.0
30 16:55 SE 14 G 18 10.00 Fair CLR 95.9 72.9 47% 106 29.93 0.0
30 16:35 S 10 10.00 Fair CLR 95 71.8 47% 103 29.94 0.0
30 16:15 S 9 10.00 Fair CLR 88.3 71.4 57% 95 29.95 0.0
30 15:55 S 14 G 17 10.00 Fair CLR 89.1 70 53% 94 29.96 0.0
30 15:35 S 13 10.00 Partly Cloudy SCT055 SCT085 89.4 71.6 56% 96 29.96 0.0
30 15:15 SE 18 10.00 Mostly Cloudy SCT050 BKN065 BKN075 92.7 71.6 50% 100 29.97 0.0
30 14:55 E 9 10.00 Mostly Cloudy SCT060 SCT070 BKN085 93.7 71.4 48% 101 29.97 0.0
30 14:35 SE 9 10.00 Fair CLR 94.5 70.5 46% 101 29.98 0.0
30 14:15 SE 8 10.00 Partly Cloudy SCT060 SCT075 SCT110 96.4 71.4 44% 105 29.98 0.0
30 13:55 E 5 10.00 Partly Cloudy SCT060 SCT075 93.9 70.7 47% 101 30 0.0
30 13:35 S 9 10.00 Fair CLR 95.9 70.5 44% 103 30 0.0
30 13:15 SE 7 10.00 Partly Cloudy SCT050 94.8 70 45% 101 30.01 0.0
30 12:55 E 5 10.00 Partly Cloudy SCT050 96.1 71.4 96.1 73.4 45% 104 30.02 0.0
30 12:35 E 5 10.00 Mostly Cloudy BKN048 93.9 71.2 48% 101 30.03 0.0
30 12:15 SE 7 10.00 Partly Cloudy SCT044 SCT065 93 72.7 52% 102 30.03 0.0
30 11:55 E 6 10.00 Partly Cloudy SCT042 92.7 72.5 52% 101 30.04 0.0
30 11:35 E 3 10.00 Fair CLR 90.9 74.3 58% 101 30.04 0.0
30 11:15 E 3 10.00 Partly Cloudy SCT042 SCT048 SCT060 89.4 74.5 61% 99 30.05 0.0
30 10:55 Calm 10.00 Mostly Cloudy SCT025 SCT030 BKN049 86.4 74.8 69% 95 30.05 0.0
30 10:35 SW 6 10.00 Mostly Cloudy SCT022 BKN031 BKN048 86 77 75% 97 30.05 0.0
30 10:15 SE 3 10.00 Mostly Cloudy BKN018 BKN024 BKN032 86 77 75% 97 30.05 0.0
30 09:55 E 5 10.00 Mostly Cloudy BKN016 BKN022 BKN030 85.5 77.7 78% 97 30.05 0.0
30 09:35 E 3 10.00 Overcast BKN022 OVC028 84 77.4 80% 94 30.05 0.0
30 09:15 Calm 10.00 Mostly Cloudy SCT021 BKN029 82.4 77.2 84% 91 30.05 0.0
30 08:55 Calm 10.00 Partly Cloudy SCT019 SCT029 81 76.5 86% 88 30.05 0.0
30 08:35 Calm 10.00 Partly Cloudy SCT017 78.8 75.7 90% 82 30.04 0.0
30 08:15 Calm 10.00 Partly Cloudy SCT020 77.2 75.2 94% 78 30.03 0.0
30 07:55 Calm 7.00 Partly Cloudy SCT020 SCT025 76.3 75 96% 76 30.03 0.0
30 07:35 Calm 10.00 Mostly Cloudy BKN020 BKN025 BKN042 75 73.9 96% 73 30.02 0.0
30 07:15 Calm 4.00 Fog/Mist SCT018 BKN025 BKN042 73.9 73 97% 30.02 0.0
30 06:55 Calm 7.00 Fair CLR 73.4 72.5 76.1 73.4 97% 30.01 0.0
30 06:35 Calm 7.00 Fair CLR 74.1 73.2 97% 30.01 0.0
30 06:15 Calm 7.00 Fair CLR 73.8 72.9 97% 30.01 0.0
30 05:55 Calm 5.00 Fog/Mist CLR 74.1 73.2 97% 30.01 0.0
30 05:35 Calm 10.00 Partly Cloudy SCT017 73.6 72.7 97% 30.01 0.0
30 05:15 Calm 7.00 Partly Cloudy SCT017 73.8 72.9 97% 30.01 0.0
30 04:55 Calm 7.00 Partly Cloudy SCT002 SCT017 73.8 72.9 97% 30.01 0.0
30 04:35 Calm 4.00 Fog/Mist SCT002 73.6 72.3 96% 30.01 0.0
30 04:15 Calm 5.00 Fog/Mist CLR 74.7 73.6 96% 30 0.0
30 03:55 Calm 7.00 Fair CLR 74.3 73 96% 30 0.0
30 03:35 Calm 10.00 Fair CLR 74.3 72.7 95% 30.01 0.0
30 03:15 Calm 10.00 Fair CLR 74.5 73.2 96% 30.01 0.0
30 02:55 Calm 10.00 Fair CLR 74.1 72.9 96% 30.01 0.0
30 02:35 Calm 10.00 Fair CLR 75.4 73.8 95% 74 30.01 0.0
30 02:15 Calm 10.00 Fair CLR 74.5 73.4 96% 30.01 0.0
30 01:55 Calm 10.00 Fair CLR 75 73.6 95% 73 30.01 0.0
30 01:35 Calm 10.00 Fair CLR 75.7 73.8 94% 75 30.02 0.0
30 01:15 Calm 10.00 Fair CLR 75.6 73.8 94% 75 30.02 0.0
30 00:55 Calm 10.00 Fair CLR 75.4 73.4 94% 74 30.01 0.0
30 00:35 S 5 10.00 Fair CLR 75.2 73 93% 74 30.02 0.0
30 00:15 Calm 10.00 Fair CLR 76.1 73.2 91% 76 30.02 0.0
29 23:55 SE 5 10.00 Fair CLR 76.1 73.2 91% 76 30.02 0.0
29 23:35 SE 3 10.00 NULL NULL 77 73.8 90% 78 30.02 0.0
29 23:10 S 3 10.00 Fair CLR 76.3 73.4 91% 77 30.03 0.0
29 22:55 SE 3 10.00 Fair CLR 77.2 73.8 89% 79 30.02 0.0
29 22:35 SE 5 10.00 Fair CLR 77 73.6 89% 78 30.02 0.0
29 22:15 SE 5 10.00 Fair CLR 77.2 73.6 89% 79 30.01 0.0
29 21:55 SE 6 10.00 Fair CLR 78.1 73.6 86% 81 30.01 0.0
29 21:35 SE 6 10.00 Fair CLR 78.8 73.9 85% 82 30 0.0
29 21:15 SE 6 10.00 Fair CLR 79.7 73.9 83% 84 29.99 0.0
29 20:55 S 6 10.00 Fair CLR 80.6 74.5 82% 86 29.98 0.0
29 20:35 S 5 10.00 Fair CLR 80.8 74.5 81% 86 29.98 0.0
29 20:15 SE 6 10.00 Fair CLR 81.5 74.5 79% 87 29.97 0.0
29 19:55 SE 7 10.00 Fair CLR 83.3 74.8 76% 91 29.97 0.0
29 19:35 SE 7 10.00 Fair CLR 84.6 74.7 72% 93 29.98 0.0
29 19:15 SE 9 10.00 Fair CLR 85.8 74.8 70% 95 29.98 0.0
29 18:55 SE 9 10.00 Fair CLR 86.7 74.7 97.9 86.7 67% 96 29.98 0.0
29 18:35 SE 12 10.00 Fair CLR 87.3 74.5 66% 96 29.98 0.0
29 18:15 SE 13 10.00 Fair CLR 89.4 74.3 61% 99 29.97 0.0
29 17:55 SE 15 10.00 Fair CLR 90.7 74.7 59% 101 29.97 0.0
29 17:35 S 14 G 20 10.00 Partly Cloudy SCT050 92.3 75.2 58% 104 29.97 0.0
29 17:15 S 12 10.00 Partly Cloudy SCT050 92.5 74.7 56% 103 29.97 0.0
29 16:55 SE 17 G 24 10.00 Partly Cloudy SCT050 SCT065 SCT075 93.6 73.8 53% 104 29.98 0.0
29 16:35 SE 15 G 20 10.00 Mostly Cloudy BKN055 BKN065 BKN090 92.8 73.6 54% 102 29.97 0.0
29 16:15 SE 10 G 16 10.00 Mostly Cloudy BKN055 BKN070 BKN090 96.1 72.7 47% 106 29.97 0.0
29 15:55 SE 6 10.00 Mostly Cloudy BKN055 BKN070 BKN090 95.5 72 47% 104 29.98 0.0
29 15:35 E 6 10.00 Partly Cloudy SCT055 97.7 71.2 42% 106 29.99 0.0
29 15:15 E 9 10.00 Partly Cloudy SCT055 96.8 71.4 44% 105 30 0.0
29 14:55 E 8 10.00 Partly Cloudy SCT050 97.2 72.3 45% 107 30.01 0.0
29 14:35 E 3 10.00 Fair CLR 96.4 72.3 46% 106 30.01 0.0
29 14:15 SE 7 10.00 Fair CLR 96.1 72.3 46% 105 30.02 0.0
29 13:55 NE 7 10.00 Fair CLR 95.7 72.7 47% 105 30.03 0.0
29 13:35 E 5 10.00 Partly Cloudy SCT048 SCT060 SCT070 95 70.7 45% 102 30.04 0.0
29 13:15 NE 5 10.00 Partly Cloudy SCT048 SCT070 93.2 73 52% 102 30.05 0.0
29 12:55 E 3 10.00 Fair CLR 93.2 73.6 93.6 72.5 53% 103 30.06 0.0
29 12:35 E 3 10.00 Partly Cloudy SCT043 93 73.8 54% 103 30.07 0.0
29 12:15 NE 7 10.00 Partly Cloudy SCT039 92.7 74.3 55% 103 30.07 0.0
29 11:55 E 7 10.00 Partly Cloudy SCT037 91.4 75.4 60% 103 30.08 0.0
29 11:35 SE 3 10.00 Partly Cloudy SCT029 89.2 75.4 64% 100 30.08 0.0
29 11:15 E 3 10.00 Mostly Cloudy BKN027 90 76.1 64% 102 30.08 0.0
29 10:55 SE 5 10.00 Mostly Cloudy BKN025 BKN033 88 76.8 70% 100 30.08 0.0
29 10:15 Calm 10.00 Partly Cloudy SCT014 85.8 78.6 79% 99 30.08 0.0
29 09:55 Calm 10.00 Fair CLR 84.4 78.6 83% 96 30.08 0.0
29 09:35 Calm 10.00 Fair CLR 82.6 78.1 86% 92 30.08 0.0
29 09:15 Calm 10.00 Fair CLR 80.4 76.8 89% 87 30.07 0.0
29 08:55 Calm 10.00 Fair CLR 78.8 75.6 90% 82 30.07 0.0
29 08:35 NE 3 10.00 Fair CLR 77 74.5 92% 78 30.07 0.0
29 08:15 NE 3 10.00 Fair CLR 75.2 73.4 94% 74 30.07 0.0
29 07:55 N 3 10.00 Fair CLR 73.9 72.5 95% 30.06 0.0
29 07:35 Calm 10.00 Fair CLR 73 71.8 96% 30.06 0.0
29 07:15 Calm 10.00 Fair CLR 73.4 71.6 94% 30.05 0.0
29 06:55 Calm 10.00 Fair CLR 73 71.2 74.8 72.9 94% 30.05 0.0
29 06:35 Calm 10.00 Fair CLR 73.4 71.2 93% 30.05 0.0
29 06:15 Calm 10.00 Fair CLR 73 71.6 95% 30.05 0.0
29 05:55 Calm 10.00 Fair CLR 73.4 71.6 94% 30.04 0.0
29 05:35 Calm 10.00 Fair CLR 73.4 71.6 94% 30.04 0.0
29 05:15 Calm 10.00 Fair CLR 73.6 72 95% 30.04 0.0
29 04:55 Calm 10.00 Partly Cloudy SCT021 73.4 72 95% 30.04 0.0
29 04:35 Calm 10.00 Partly Cloudy SCT021 73.6 72.1 95% 30.04 0.0
29 04:15 Calm 10.00 Mostly Cloudy BKN017 BKN021 73.9 72.5 95% 30.04 0.0
29 03:55 Calm 10.00 Mostly Cloudy BKN017 73.8 72.1 95% 30.04 0.0
29 03:35 Calm 10.00 Fair CLR 73.6 72 95% 30.04 0.0
29 03:15 Calm 10.00 Fair CLR 74.1 72.1 94% 30.03 0.0
29 02:55 Calm 10.00 Fair CLR 73.6 71.8 94% 30.03 0.0
29 02:35 Calm 10.00 Fair CLR 73.8 71.8 94% 30.03 0.0
29 01:55 NE 3 10.00 Fair CLR 73.9 72.1 94% 30.02 0.0
29 01:35 Calm 10.00 Fair CLR 74.7 72.9 94% 30.02 0.0
29 01:15 Calm 10.00 Fair CLR 74.7 72.7 94% 30.02 0.0
29 00:55 E 3 10.00 Fair CLR 74.8 72.7 76.1 74.3 93% 30.03 0.0
29 00:35 Calm 10.00 Fair CLR 74.8 72.5 92% 30.03 0.0
29 00:15 Calm 10.00 Fair CLR 74.5 72.5 94% 30.04 0.0
28 23:55 N 3 10.00 Fair CLR 74.7 72.7 94% 30.03 0.0
28 23:35 Calm 10.00 Fair CLR 74.8 72.7 93% 30.03 0.0
28 23:15 Calm 10.00 Fair CLR 75.2 73 93% 74 30.03 0.0
28 22:55 E 3 10.00 Fair CLR 74.8 72.1 91% 30.02 0.0
28 22:35 SW 3 10.00 Fair CLR 75.2 71.6 89% 75 30.01 0.0
28 22:15 Calm 10.00 Fair CLR 75.4 72.7 91% 75 30.02 0.0
28 21:55 Calm 10.00 Fair CLR 75.4 73.4 94% 74 30.02 0.0
28 21:35 Calm 10.00 Fair CLR 75.4 72.9 92% 75 30.01 0.0
28 21:15 Calm 10.00 Partly Cloudy SCT028 75.2 73 93% 74 30.02 0.0
28 20:55 E 3 10.00 Partly Cloudy SCT028 75.4 72.9 92% 75 30.02 0.0
28 20:35 NE 5 10.00 Fair CLR 75.2 72.5 91% 74 30 0.0
28 20:15 SW 5 10.00 Fair CLR 75 72.5 92% 74 29.96 0.0
28 19:55 SW 3 10.00 Fair CLR 75.2 72.3 91% 74 29.98 0.0
28 19:35 SE 3 10.00 Partly Cloudy SCT048 75.4 71.8 89% 75 29.98 0.0
28 19:15 NE 5 10.00 Light Rain SCT048 SCT065 BKN090 75.7 72 88% 76 29.99 0.0
28 18:55 NE 9 10.00 Rain BKN110 76.3 71.6 98.8 76.3 86% 77 30 0.0 0.01 0.05
28 18:35 NE 10 10.00 Partly Cloudy SCT100 77.9 70.7 79% 80 30.01 0.0
28 18:15 Calm 10.00 Fair CLR 77.5 72.1 84% 79 30.01 0.0
28 17:55 Calm 10.00 Partly Cloudy SCT040 77.4 71.4 82% 79 30.01 0.0
28 17:35 NW 13 G 23 10.00 Partly Cloudy SCT040 SCT095 77.4 71.1 81% 79 30.02 0.0
28 17:15 N 12 10.00 Partly Cloudy SCT095 79.9 70.7 74% 83 30.03 0.0
28 16:55 Calm 10.00 Partly Cloudy SCT018 SCT024 SCT029 79.5 72.3 79% 83 30.01 0.0 0.04
28 16:35 E 13 G 31 2.50 Light Rain SCT020 BKN045 OVC110 77 71.1 82% 79 30 0.0 0.04
28 16:15 E 24 G 28 5.00 Mostly Cloudy with Haze and Breezy BKN044 BKN050 BKN060 82.4 69.3 65% 86 30.02 0.0
28 15:55 SE 14 G 23 10.00 Fair CLR 95 70.9 46% 102 30 0.0
28 15:35 S 13 10.00 Fair CLR 93.7 69.3 45% 99 29.97 0.0
28 15:15 S 15 10.00 Fair CLR 90.9 68.5 48% 95 29.99 0.0
28 14:55 S 16 G 24 10.00 Partly Cloudy SCT060 SCT085 86.5 67.6 53% 90 30 0.0
28 14:35 S 15 10.00 Partly Cloudy SCT060 89.8 71.4 55% 96 30.01 0.0
28 14:15 S 12 G 22 10.00 Partly Cloudy SCT080 97.2 70.7 42% 105 30.01 0.0
28 13:55 E 8 10.00 Partly Cloudy SCT080 98.6 71.2 41% 107 30.01 0.0
28 13:35 NW 3 10.00 Fair CLR 95 71.8 47% 103 30.02 0.0
28 13:15 Calm 10.00 Partly Cloudy SCT050 95.2 72.1 47% 104 30.03 0.0
28 12:55 Calm 10.00 Fair CLR 93.6 71.2 94.3 77 48% 101 30.04 0.0
28 12:35 NW 3 10.00 Partly Cloudy SCT080 93.7 72.1 50% 102 30.05 0.0
28 12:15 NW 3 10.00 Partly Cloudy SCT080 93.7 72.3 50% 102 30.04 0.0
28 11:55 Calm 10.00 Partly Cloudy SCT042 92.1 72.9 53% 101 30.05 0.0
28 11:35 Calm 10.00 Fair CLR 92.1 73.8 55% 102 30.05 0.0
28 11:15 Calm 10.00 Partly Cloudy SCT030 90 74.1 60% 99 30.06 0.0
28 10:55 W 8 10.00 Partly Cloudy SCT030 SCT080 89.8 75.4 63% 101 30.05 0.0
28 10:35 SW 7 10.00 Partly Cloudy SCT080 88.3 75.2 65% 98 30.06 0.0
28 10:15 SW 5 10.00 Partly Cloudy SCT024 87.1 75.7 69% 97 30.06 0.0
28 09:55 W 7 10.00 Mostly Cloudy BKN022 BKN032 87.1 77 72% 99 30.06 0.0
28 09:35 SW 5 10.00 Mostly Cloudy BKN019 85.6 77 75% 97 30.05 0.0
28 09:15 SW 3 10.00 Partly Cloudy SCT015 85.1 77.5 78% 96 30.05 0.0
28 08:55 Calm 10.00 Fair CLR 83.7 78.3 84% 94 30.04 0.0
28 08:35 Calm 10.00 Fair CLR 81.7 78.3 89% 90 30.04 0.0
28 08:15 Calm 10.00 Fair CLR 79.9 77.5 93% 86 30.03 0.0
28 07:55 Calm 10.00 Fair CLR 78.6 77 95% 82 30.03 0.0
28 07:35 Calm 10.00 Fair CLR 77.5 76.3 96% 79 30.03 0.0
28 07:15 Calm 10.00 Fair CLR 77.2 75.9 96% 78 30.02 0.0
28 06:55 E 3 10.00 Fair CLR 77.2 75.6 80.6 77.2 95% 78 30.02 0.0
28 06:35 SE 3 10.00 Fair CLR 77.9 75.2 91% 80 30.02 0.0
28 06:15 Calm 10.00 Fair CLR 77.7 76.1 95% 80 30.01 0.0
28 05:55 Calm 10.00 Fair CLR 77.9 76.1 94% 80 30 0.0
28 05:35 Calm 10.00 Fair CLR 78.8 76.6 93% 83 30 0.0
28 05:15 Calm 10.00 Partly Cloudy SCT080 78.8 76.8 94% 83 30 0.0
28 04:55 Calm 10.00 Fair CLR 78.8 76.3 92% 83 30 0.0
28 04:35 Calm 10.00 Fair CLR 79.2 77 93% 84 30 0.0
28 04:15 Calm 10.00 Partly Cloudy SCT080 SCT100 79.7 77.4 93% 85 30 0.0
28 03:55 Calm 10.00 Mostly Cloudy SCT019 SCT025 BKN080 79.7 77.2 92% 85 30 0.0
28 03:35 Calm 10.00 Overcast SCT019 BKN024 OVC080 79.3 77 93% 84 30 0.0
28 03:15 Calm 10.00 Mostly Cloudy SCT019 SCT080 BKN120 79.5 76.6 91% 84 30 0.0
28 02:55 Calm 10.00 Mostly Cloudy BKN120 79.3 77 93% 84 29.99 0.0
28 02:35 Calm 10.00 Mostly Cloudy BKN110 79.2 76.6 92% 84 30 0.0
28 02:15 Calm 10.00 Mostly Cloudy SCT020 BKN110 79.7 76.6 90% 85 30 0.0
28 01:55 Calm 10.00 Mostly Cloudy SCT020 BKN100 80.1 77.2 91% 86 30.01 0.0
28 01:35 Calm 10.00 Mostly Cloudy SCT020 BKN100 80.2 77 90% 86 30.01 0.0
28 01:15 Calm 10.00 Partly Cloudy SCT090 80.2 77 90% 86 30.01 0.0
28 00:55 Calm 10.00 Partly Cloudy SCT090 80.2 77 92.7 80.1 90% 86 30 0.0
28 00:35 S 3 10.00 Fair CLR 80.6 77 89% 87 30 0.0
28 00:15 S 6 10.00 Fair CLR 81.1 77.2 88% 88 29.98 0.0
27 23:55 S 6 10.00 Fair CLR 81.5 77.4 87% 89 29.99 0.0
Date Time (cdt) Wind (mph) Vis. (mi.) Weather Sky Cond. Air Dwpt Max. Min. Relative Humidity Wind Chill (°F) Heat Index (°F) altimeter (in) sea level (mb) 1 hr 3 hr 6 hr
6 hour
Temperature (ºF) Pressure Precipitation (in)